Time;durP1;ratioP1;P1;durP2;ratioP2;P2;SDS_P1;SDS_P2;PMS_P1;PMS_P2;Temp;Humidity;BMP_temperature;BMP_pressure;BME280_temperature;BME280_humidity;BME280_pressure;Samples;Min_cycle;Max_cycle;Signal;HPM_P1;HPM_P2
2020/12/24 00:00:01;;;;;;;60.65;44.13;;;12.50;99.90;;;;;;5035339;28;20022;-75
2020/12/24 00:02:27;;;;;;;60.65;46.95;;;12.50;99.90;;;;;;5013655;28;20056;-75
2020/12/24 00:04:53;;;;;;;58.35;44.78;;;12.50;99.90;;;;;;5014059;28;20113;-75
2020/12/24 00:07:18;;;;;;;60.30;47.67;;;12.50;99.90;;;;;;5013979;28;20038;-75
2020/12/24 00:09:45;;;;;;;60.42;46.05;;;12.50;99.90;;;;;;5014646;28;20025;-75
2020/12/24 00:12:15;;;;;;;62.50;46.17;;;12.50;99.90;;;;;;5015731;28;20112;-76
2020/12/24 00:14:41;;;;;;;53.88;41.22;;;12.50;99.90;;;;;;5016501;28;20483;-75
2020/12/24 00:17:06;;;;;;;48.28;38.38;;;12.50;99.90;;;;;;5018383;28;20059;-76
2020/12/24 00:19:32;;;;;;;50.80;40.70;;;12.50;99.90;;;;;;5017607;28;20026;-76
2020/12/24 00:21:58;;;;;;;55.13;45.95;;;12.40;99.90;;;;;;5013803;28;20034;-75
2020/12/24 00:24:24;;;;;;;64.90;51.05;;;12.40;99.90;;;;;;5014240;28;20108;-75
2020/12/24 00:26:50;;;;;;;54.17;44.67;;;12.40;99.90;;;;;;5013988;28;20034;-76
2020/12/24 00:29:18;;;;;;;57.50;44.05;;;12.40;99.90;;;;;;5015088;28;20538;-75
2020/12/24 00:31:44;;;;;;;59.75;45.42;;;12.40;99.90;;;;;;5013635;28;20425;-76
2020/12/24 00:34:10;;;;;;;55.38;45.33;;;12.30;99.90;;;;;;5013677;28;20056;-76
2020/12/24 00:36:36;;;;;;;60.42;49.35;;;12.30;99.90;;;;;;5014985;28;20053;-75
2020/12/24 00:39:04;;;;;;;69.88;54.80;;;12.30;99.90;;;;;;5013122;28;20112;-75
2020/12/24 00:41:30;;;;;;;65.00;51.95;;;12.40;99.90;;;;;;5013560;28;20527;-75
2020/12/24 00:43:59;;;;;;;62.22;50.22;;;12.40;99.90;;;;;;5013476;28;20022;-75
2020/12/24 00:46:27;;;;;;;65.90;50.15;;;12.40;99.90;;;;;;5014890;28;20047;-76
2020/12/24 00:48:58;;;;;;;70.53;54.55;;;12.40;99.90;;;;;;5013793;28;20049;-76
2020/12/24 00:51:24;;;;;;;71.55;56.45;;;12.40;99.90;;;;;;5013393;28;20361;-76
2020/12/24 00:53:50;;;;;;;68.72;54.30;;;12.40;99.90;;;;;;5013048;28;20032;-75
2020/12/24 00:56:15;;;;;;;75.63;60.63;;;12.30;99.90;;;;;;5013213;28;20093;-75
2020/12/24 00:58:41;;;;;;;72.53;58.70;;;12.30;99.90;;;;;;5013116;28;20021;-76
2020/12/24 01:01:07;;;;;;;75.93;62.33;;;12.40;99.90;;;;;;5013283;28;20037;-75
2020/12/24 01:03:33;;;;;;;84.88;63.80;;;12.30;99.90;;;;;;5032846;28;20053;-77
2020/12/24 01:05:59;;;;;;;73.63;58.00;;;12.30;99.90;;;;;;5017163;28;20037;-77
2020/12/24 01:08:28;;;;;;;68.32;55.17;;;12.30;99.90;;;;;;5034473;28;20033;-77
2020/12/24 01:10:54;;;;;;;80.97;64.13;;;12.30;99.90;;;;;;5016513;28;20392;-74
2020/12/24 01:13:20;;;;;;;84.28;66.05;;;12.30;99.90;;;;;;5034189;28;20040;-76
2020/12/24 01:15:49;;;;;;;73.20;59.42;;;12.30;99.90;;;;;;5015947;28;20030;-76
2020/12/24 01:18:14;;;;;;;72.00;57.65;;;12.30;99.90;;;;;;5016644;28;20030;-77
2020/12/24 01:20:44;;;;;;;74.72;57.03;;;12.30;99.90;;;;;;5016155;28;20025;-76
2020/12/24 01:23:09;;;;;;;74.93;60.00;;;12.30;99.90;;;;;;5016184;28;20419;-76
2020/12/24 01:25:35;;;;;;;76.25;60.45;;;12.30;99.90;;;;;;5033261;28;20159;-76
2020/12/24 01:28:01;;;;;;;87.00;65.85;;;12.30;99.90;;;;;;5016436;28;20061;-77
2020/12/24 01:30:27;;;;;;;83.63;62.97;;;12.30;99.90;;;;;;5033737;28;20029;-74
2020/12/24 01:32:53;;;;;;;73.95;58.38;;;12.30;99.90;;;;;;5015876;28;20033;-75
2020/12/24 01:35:21;;;;;;;78.60;61.72;;;12.30;99.90;;;;;;5016051;28;20029;-75
2020/12/24 01:37:48;;;;;;;71.65;56.50;;;12.30;99.90;;;;;;5016334;28;20474;-75
2020/12/24 01:40:14;;;;;;;64.88;52.35;;;12.30;99.90;;;;;;5015644;28;20025;-75
2020/12/24 01:42:40;;;;;;;62.10;49.60;;;12.30;99.90;;;;;;5015681;28;20026;-76
2020/12/24 01:45:06;;;;;;;58.83;46.92;;;12.30;99.90;;;;;;4999483;28;20033;-75
2020/12/24 01:47:32;;;;;;;59.40;45.67;;;12.30;99.90;;;;;;5033325;28;20064;-75
2020/12/24 01:50:01;;;;;;;53.60;41.60;;;12.30;99.90;;;;;;5033647;28;20026;-75
2020/12/24 01:52:35;;;;;;;52.55;40.38;;;12.30;99.90;;;;;;5034810;28;20360;-75
2020/12/24 01:55:09;;;;;;;60.38;45.28;;;12.30;99.90;;;;;;5019860;28;20456;-76
2020/12/24 01:57:36;;;;;;;54.05;42.90;;;12.30;99.90;;;;;;5037375;28;20022;-75
2020/12/24 02:00:10;;;;;;;54.13;45.05;;;12.30;99.90;;;;;;5037245;28;20029;-74
2020/12/24 02:02:36;;;;;;;50.60;41.60;;;12.30;99.90;;;;;;5034597;28;20053;-75
2020/12/24 02:05:02;;;;;;;53.95;42.38;;;12.30;99.90;;;;;;5019387;28;20386;-74
2020/12/24 02:07:28;;;;;;;55.13;44.00;;;12.30;99.90;;;;;;5019414;28;20079;-75
2020/12/24 02:09:57;;;;;;;49.70;40.20;;;12.30;99.90;;;;;;5037099;28;20025;-75
2020/12/24 02:12:22;;;;;;;53.50;41.30;;;12.30;99.90;;;;;;5019169;28;20041;-75
2020/12/24 02:14:48;;;;;;;51.00;37.53;;;12.30;99.90;;;;;;5019250;28;20102;-75
2020/12/24 02:17:16;;;;;;;49.38;37.60;;;12.30;99.90;;;;;;5019981;28;20057;-77
2020/12/24 02:19:42;;;;;;;52.85;37.83;;;12.30;99.90;;;;;;5037953;28;20053;-77
2020/12/24 02:22:10;;;;;;;48.22;36.50;;;12.30;99.90;;;;;;5020083;28;20102;-76
2020/12/24 02:24:42;;;;;;;51.58;35.38;;;12.30;99.90;;;;;;5019617;28;20033;-77
2020/12/24 02:27:08;;;;;;;49.88;36.33;;;12.30;99.90;;;;;;5037690;28;20104;-76
2020/12/24 02:29:34;;;;;;;54.58;40.95;;;12.30;99.90;;;;;;5020030;28;20026;-77
2020/12/24 02:32:00;;;;;;;55.17;39.53;;;12.40;99.90;;;;;;5021858;28;20056;-77
2020/12/24 02:34:26;;;;;;;63.58;42.17;;;12.40;99.90;;;;;;5042508;28;20021;-77
2020/12/24 02:36:52;;;;;;;55.90;42.55;;;12.30;99.90;;;;;;5020018;28;20037;-77
2020/12/24 02:39:17;;;;;;;56.35;38.47;;;12.30;99.90;;;;;;5018840;28;20063;-76
2020/12/24 02:41:43;;;;;;;54.63;39.78;;;12.40;99.90;;;;;;5018937;28;20029;-77
2020/12/24 02:44:09;;;;;;;48.58;37.10;;;12.40;99.90;;;;;;5036279;28;20037;-77
2020/12/24 02:46:35;;;;;;;54.97;37.08;;;12.30;99.90;;;;;;5018642;28;20101;-76
2020/12/24 02:49:04;;;;;;;52.83;37.72;;;12.40;99.90;;;;;;5018824;28;20465;-77
2020/12/24 02:51:30;;;;;;;48.10;35.88;;;12.40;99.90;;;;;;5018738;28;20036;-77
2020/12/24 02:53:55;;;;;;;47.15;35.83;;;12.40;99.90;;;;;;5018565;28;20387;-76
2020/12/24 02:56:21;;;;;;;49.70;35.53;;;12.40;99.90;;;;;;5036359;28;20108;-76
2020/12/24 02:58:49;;;;;;;47.20;35.63;;;12.40;99.90;;;;;;5018438;28;20025;-77
2020/12/24 03:01:15;;;;;;;49.08;34.60;;;12.40;99.90;;;;;;5018352;28;20495;-77
2020/12/24 03:03:41;;;;;;;43.03;32.83;;;12.40;99.90;;;;;;5018024;28;20030;-77
2020/12/24 03:06:07;;;;;;;46.97;35.97;;;12.40;99.90;;;;;;5018150;28;20472;-76
2020/12/24 03:08:32;;;;;;;45.75;33.33;;;12.40;99.90;;;;;;5017852;28;20045;-76
2020/12/24 03:10:58;;;;;;;40.97;30.80;;;12.30;99.90;;;;;;5018866;28;20412;-76
2020/12/24 03:13:24;;;;;;;38.13;30.10;;;12.40;99.90;;;;;;5018150;28;20034;-77
2020/12/24 03:15:52;;;;;;;34.45;29.50;;;12.30;99.90;;;;;;5035858;28;20021;-77
2020/12/24 03:18:18;;;;;;;36.28;27.98;;;12.40;99.90;;;;;;5018175;28;20031;-77
2020/12/24 03:20:44;;;;;;;47.40;29.52;;;12.40;99.90;;;;;;5035625;28;20037;-76
2020/12/24 03:23:12;;;;;;;33.75;26.23;;;12.40;99.90;;;;;;5018001;28;20036;-76
2020/12/24 03:25:38;;;;;;;33.90;26.25;;;12.30;99.90;;;;;;5017986;28;20092;-77
2020/12/24 03:28:04;;;;;;;32.95;24.88;;;12.30;99.90;;;;;;5035497;28;20025;-77
2020/12/24 03:30:30;;;;;;;29.77;23.42;;;12.40;99.90;;;;;;5018012;28;20028;-76
2020/12/24 03:32:56;;;;;;;31.58;24.33;;;12.30;99.90;;;;;;5017818;28;20044;-76
2020/12/24 03:35:21;;;;;;;31.63;24.13;;;12.30;99.90;;;;;;5018316;28;20025;-77
2020/12/24 03:37:47;;;;;;;29.55;24.15;;;12.30;99.90;;;;;;5017740;28;20030;-77
2020/12/24 03:40:13;;;;;;;29.95;25.20;;;12.30;99.90;;;;;;5018349;28;20079;-77
2020/12/24 03:42:39;;;;;;;29.38;24.23;;;12.30;99.90;;;;;;5017812;28;20376;-77
2020/12/24 03:45:05;;;;;;;33.20;25.05;;;12.30;99.90;;;;;;5035627;28;20421;-77
2020/12/24 03:47:31;;;;;;;26.45;22.27;;;12.30;99.90;;;;;;5017865;28;20034;-77
2020/12/24 03:49:56;;;;;;;27.08;21.25;;;12.30;99.90;;;;;;5017724;28;20029;-77
2020/12/24 03:52:22;;;;;;;29.90;22.73;;;12.30;99.90;;;;;;5017468;28;20034;-77
2020/12/24 03:54:48;;;;;;;31.52;22.75;;;12.30;99.90;;;;;;5017643;28;20021;-76
2020/12/24 03:57:14;;;;;;;29.02;21.42;;;12.30;99.90;;;;;;5017522;28;20040;-76
2020/12/24 03:59:40;;;;;;;29.17;22.58;;;12.30;99.90;;;;;;5017884;28;20029;-77
2020/12/24 04:02:05;;;;;;;29.75;22.05;;;12.30;99.90;;;;;;5017244;28;20057;-77
2020/12/24 04:04:31;;;;;;;28.00;22.40;;;12.30;99.90;;;;;;5017341;28;20104;-76
2020/12/24 04:07:01;;;;;;;27.90;22.50;;;12.30;99.90;;;;;;5017178;28;20033;-77
2020/12/24 04:09:27;;;;;;;26.10;22.05;;;12.30;99.90;;;;;;5017985;28;20032;-76
2020/12/24 04:11:52;;;;;;;27.17;21.25;;;12.30;99.90;;;;;;5017248;28;20391;-77
2020/12/24 04:14:18;;;;;;;24.30;20.55;;;12.30;99.90;;;;;;5017333;28;20060;-77
2020/12/24 04:16:44;;;;;;;23.50;20.15;;;12.30;99.90;;;;;;5016249;28;20120;-77
2020/12/24 04:19:10;;;;;;;24.48;20.58;;;12.30;99.90;;;;;;5018014;28;20022;-77
2020/12/24 04:21:35;;;;;;;22.77;18.38;;;12.30;99.90;;;;;;5017994;28;20057;-76
2020/12/24 04:24:01;;;;;;;20.83;17.52;;;12.30;99.90;;;;;;5017666;28;20049;-77
2020/12/24 04:26:27;;;;;;;20.58;17.65;;;12.30;99.90;;;;;;5035197;28;20485;-76
2020/12/24 04:28:53;;;;;;;18.98;16.77;;;12.30;99.90;;;;;;5016912;28;20045;-75
2020/12/24 04:31:22;;;;;;;19.52;16.88;;;12.20;99.90;;;;;;5034965;28;20037;-75
2020/12/24 04:33:48;;;;;;;22.42;18.45;;;12.20;99.90;;;;;;5034287;28;20537;-75
2020/12/24 04:36:15;;;;;;;21.08;17.60;;;12.20;99.90;;;;;;5034384;28;20025;-76
2020/12/24 04:38:42;;;;;;;21.50;17.50;;;12.30;99.90;;;;;;5034975;28;20097;-76
2020/12/24 04:41:09;;;;;;;23.95;17.05;;;12.30;99.90;;;;;;5017124;28;20120;-75
2020/12/24 04:43:37;;;;;;;18.63;15.38;;;12.30;99.90;;;;;;5018379;28;20026;-75
2020/12/24 04:46:05;;;;;;;20.33;15.38;;;12.30;99.90;;;;;;5003683;28;20133;-75
2020/12/24 04:48:32;;;;;;;16.25;14.20;;;12.30;99.90;;;;;;5019470;28;20434;-77
2020/12/24 04:51:00;;;;;;;19.48;14.73;;;12.30;99.90;;;;;;5022070;28;20360;-77
2020/12/24 04:53:26;;;;;;;17.27;15.05;;;12.30;99.90;;;;;;5002835;28;20125;-75
2020/12/24 04:55:54;;;;;;;23.67;17.20;;;12.30;99.90;;;;;;5034163;28;20099;-76
2020/12/24 04:58:23;;;;;;;37.58;24.60;;;12.30;99.90;;;;;;5016343;28;20468;-76
2020/12/24 05:00:49;;;;;;;43.47;27.15;;;12.30;99.90;;;;;;5034582;28;20553;-75
2020/12/24 05:03:15;;;;;;;33.72;25.00;;;12.30;99.90;;;;;;5015808;28;20050;-76
2020/12/24 05:05:44;;;;;;;34.00;23.02;;;12.30;99.90;;;;;;5016714;28;20025;-75
2020/12/24 05:08:09;;;;;;;31.77;19.38;;;12.30;99.90;;;;;;5016099;28;20106;-76
2020/12/24 05:10:37;;;;;;;25.05;18.50;;;12.30;99.90;;;;;;5033617;28;20049;-75
2020/12/24 05:13:21;;;;;;;24.55;19.65;;;12.30;99.90;;;;;;5016365;28;20041;-75
2020/12/24 05:15:50;;;;;;;21.50;17.45;;;12.30;99.90;;;;;;5016492;28;20148;-77
2020/12/24 05:18:23;;;;;;;20.67;15.90;;;12.30;99.90;;;;;;5034374;28;20060;-76
2020/12/24 05:20:50;;;;;;;;;;;12.30;99.90;;;;;;5034062;28;20383;-76
2020/12/24 05:23:18;;;;;;;17.38;14.18;;;12.30;99.90;;;;;;5015839;28;19927;-76
2020/12/24 05:25:46;;;;;;;18.88;14.10;;;12.30;99.90;;;;;;4999920;28;20107;-76
2020/12/24 05:28:21;;;;;;;14.57;12.85;;;12.30;99.90;;;;;;5016205;28;20029;-76
2020/12/24 05:30:48;;;;;;;15.88;12.30;;;12.30;99.90;;;;;;5016315;28;20022;-75
2020/12/24 05:33:32;;;;;;;15.45;13.18;;;12.30;99.90;;;;;;5033727;28;20084;-76
2020/12/24 05:36:19;;;;;;;16.45;13.85;;;12.30;99.90;;;;;;5033397;28;20021;-77
2020/12/24 05:38:46;;;;;;;16.60;14.80;;;12.30;99.90;;;;;;5034317;28;20076;-76
2020/12/24 05:41:32;;;;;;;18.23;15.20;;;12.30;99.90;;;;;;4983775;28;20120;-76
2020/12/24 05:44:07;;;;;;;18.20;16.30;;;12.30;99.90;;;;;;5016434;28;20474;-75
2020/12/24 05:46:47;;;;;;;18.52;15.65;;;12.30;99.90;;;;;;5016582;28;20407;-76
2020/12/24 05:49:14;;;;;;;19.55;15.55;;;12.30;99.90;;;;;;5034510;28;20041;-77
2020/12/24 05:51:40;;;;;;;17.90;15.95;;;12.30;99.90;;;;;;5016970;28;20033;-75
2020/12/24 05:54:07;;;;;;;18.40;15.55;;;12.30;99.90;;;;;;5033586;28;20383;-77
2020/12/24 05:56:37;;;;;;;18.70;15.30;;;12.30;99.90;;;;;;5016237;28;20029;-77
2020/12/24 05:59:05;;;;;;;17.33;14.57;;;12.30;99.90;;;;;;5033866;28;20022;-77
2020/12/24 06:01:40;;;;;;;15.88;12.27;;;12.30;99.90;;;;;;4999290;28;20479;-76
2020/12/24 06:04:09;;;;;;;13.77;12.43;;;12.30;99.90;;;;;;5033507;28;20022;-77
2020/12/24 06:06:44;;;;;;;14.60;11.90;;;12.30;99.90;;;;;;5016023;28;20129;-77
2020/12/24 06:09:19;;;;;;;14.23;11.95;;;12.30;99.90;;;;;;5016494;28;20112;-77
2020/12/24 06:11:51;;;;;;;16.50;11.40;;;12.30;99.90;;;;;;5033399;28;20034;-78
2020/12/24 06:14:31;;;;;;;12.60;11.40;;;12.30;99.90;;;;;;5033945;28;20036;-77
2020/12/24 06:17:07;;;;;;;15.15;11.57;;;12.30;99.90;;;;;;5015507;28;20051;-77
2020/12/24 06:19:40;;;;;;;14.57;11.57;;;12.30;99.90;;;;;;5033550;28;20022;-76
2020/12/24 06:22:07;;;;;;;13.25;11.05;;;12.30;99.90;;;;;;5034127;28;20029;-75
2020/12/24 06:24:37;;;;;;;14.18;11.50;;;12.30;99.90;;;;;;5015809;28;20025;-75
2020/12/24 06:27:06;;;;;;;13.73;11.75;;;12.30;99.90;;;;;;5015669;28;20046;-75
2020/12/24 06:29:37;;;;;;;23.48;19.30;;;12.30;99.90;;;;;;5033913;28;20083;-75
2020/12/24 06:32:07;;;;;;;30.25;21.77;;;12.30;99.90;;;;;;4999831;28;20045;-75
2020/12/24 06:34:39;;;;;;;38.30;29.48;;;12.30;99.90;;;;;;4999152;28;20041;-75
2020/12/24 06:37:17;;;;;;;38.67;27.80;;;12.30;99.90;;;;;;4999630;28;20442;-76
2020/12/24 06:39:51;;;;;;;26.38;20.83;;;12.30;99.90;;;;;;5034688;28;20029;-76
2020/12/24 06:42:35;;;;;;;23.77;18.52;;;12.30;99.90;;;;;;5036360;28;20442;-75
2020/12/24 06:45:02;;;;;;;20.63;17.38;;;12.30;99.90;;;;;;5018884;28;20038;-76
2020/12/24 06:47:28;;;;;;;40.80;26.98;;;12.40;99.90;;;;;;5019108;28;20033;-76
2020/12/24 06:49:56;;;;;;;55.03;30.90;;;12.40;99.90;;;;;;5019164;28;20034;-76
2020/12/24 06:52:30;;;;;;;44.97;24.52;;;12.40;99.90;;;;;;5018756;28;20108;-75
2020/12/24 06:55:15;;;;;;;33.15;24.05;;;12.40;99.90;;;;;;5036997;28;20022;-75
2020/12/24 06:57:44;;;;;;;34.30;22.15;;;12.40;99.90;;;;;;5019309;28;20052;-75
2020/12/24 07:00:25;;;;;;;24.33;18.58;;;12.50;99.90;;;;;;5037135;28;20021;-76
2020/12/24 07:02:52;;;;;;;71.03;46.65;;;12.50;99.90;;;;;;5016473;28;20077;-76
2020/12/24 07:05:39;;;;;;;41.85;29.77;;;12.50;99.90;;;;;;5017976;28;20057;-76
2020/12/24 07:08:05;;;;;;;34.50;24.35;;;12.60;99.90;;;;;;5022193;28;20034;-76
2020/12/24 07:10:50;;;;;;;30.75;22.42;;;12.60;99.90;;;;;;5017041;28;20021;-76
2020/12/24 07:13:35;;;;;;;26.13;19.58;;;12.60;99.90;;;;;;5015444;28;20034;-76
2020/12/24 07:16:02;;;;;;;20.35;17.25;;;12.60;99.90;;;;;;5015629;28;20030;-75
2020/12/24 07:18:30;;;;;;;29.25;18.27;;;12.60;99.90;;;;;;5016431;28;20406;-75
2020/12/24 07:21:02;;;;;;;24.10;18.52;;;12.60;99.90;;;;;;5015336;28;20026;-75
2020/12/24 07:23:32;;;;;;;20.70;16.63;;;12.60;99.90;;;;;;5015814;28;20085;-77
2020/12/24 07:26:02;;;;;;;24.70;17.27;;;12.70;99.90;;;;;;5017554;28;20037;-78
2020/12/24 07:28:35;;;;;;;20.75;16.45;;;12.70;99.90;;;;;;5015289;28;20030;-75
2020/12/24 07:31:06;;;;;;;19.35;16.35;;;12.70;99.90;;;;;;4999729;28;20068;-76
2020/12/24 07:33:35;;;;;;;22.75;19.05;;;12.70;99.90;;;;;;5015679;28;20052;-75
2020/12/24 07:36:05;;;;;;;24.40;20.02;;;12.70;99.90;;;;;;5015070;28;20030;-76
2020/12/24 07:38:34;;;;;;;29.98;22.80;;;12.70;99.90;;;;;;5014536;28;20073;-76
2020/12/24 07:41:02;;;;;;;22.15;19.75;;;12.80;99.90;;;;;;5015093;28;20354;-77
2020/12/24 07:43:28;;;;;;;24.90;19.27;;;12.80;99.90;;;;;;5014728;28;20476;-76
2020/12/24 07:45:54;;;;;;;26.13;21.88;;;12.80;99.90;;;;;;5015004;28;20094;-77
2020/12/24 07:48:23;;;;;;;23.75;20.48;;;12.80;99.90;;;;;;5014925;28;20049;-77
2020/12/24 07:50:51;;;;;;;24.27;18.23;;;13.20;99.90;;;;;;5015159;28;20029;-76
2020/12/24 07:53:26;;;;;;;24.30;17.98;;;12.80;99.90;;;;;;4998349;28;20552;-77
2020/12/24 07:55:52;;;;;;;37.75;29.33;;;12.80;99.90;;;;;;5016000;28;20030;-74
2020/12/24 07:58:19;;;;;;;28.02;21.20;;;12.80;99.90;;;;;;5015576;28;20029;-76
2020/12/24 08:00:52;;;;;;;33.20;22.55;;;12.90;99.90;;;;;;5014908;28;20483;-76
2020/12/24 08:03:19;;;;;;;30.30;20.92;;;12.90;99.90;;;;;;5030047;28;20144;-76
2020/12/24 08:05:47;;;;;;;32.20;22.70;;;12.90;99.90;;;;;;5035382;28;20014;-76
2020/12/24 08:08:23;;;;;;;59.38;37.50;;;12.90;99.90;;;;;;5018074;28;20033;-76
2020/12/24 08:10:52;;;;;;;56.53;34.03;;;12.90;99.90;;;;;;5017779;28;20171;-75
2020/12/24 08:13:21;;;;;;;39.22;24.40;;;12.90;99.90;;;;;;5017441;28;20033;-74
2020/12/24 08:15:50;;;;;;;36.97;25.30;;;12.90;99.90;;;;;;5017626;28;20479;-75
2020/12/24 08:18:26;;;;;;;32.65;21.95;;;12.90;99.90;;;;;;5017318;28;20033;-75
2020/12/24 08:21:03;;;;;;;25.25;16.23;;;12.90;99.90;;;;;;5018012;28;20340;-76
2020/12/24 08:23:49;;;;;;;23.63;18.10;;;12.90;99.90;;;;;;5017047;28;20017;-77
2020/12/24 08:26:16;;;;;;;25.45;20.65;;;12.90;99.90;;;;;;5017769;28;20044;-77
2020/12/24 08:29:08;;;;;;;23.75;17.27;;;13.00;99.90;;;;;;5034634;28;20109;-74
2020/12/24 08:31:42;;;;;;;18.98;16.48;;;13.00;99.90;;;;;;5013247;28;20040;-75
2020/12/24 08:34:09;;;;;;;22.33;16.00;;;13.00;99.90;;;;;;5034399;28;20021;-75
2020/12/24 08:36:46;;;;;;;19.23;15.15;;;13.00;99.90;;;;;;5017196;28;20030;-75
2020/12/24 08:39:14;;;;;;;18.92;15.43;;;13.00;99.90;;;;;;5017295;28;20033;-75
2020/12/24 08:41:44;;;;;;;24.58;16.52;;;13.00;99.90;;;;;;5034545;28;20026;-74
2020/12/24 08:44:10;;;;;;;21.80;16.85;;;13.00;99.90;;;;;;5034637;28;20100;-74
2020/12/24 08:46:37;;;;;;;18.52;15.73;;;13.00;99.90;;;;;;5017313;28;20125;-75
2020/12/24 08:49:41;;;;;;;19.25;16.35;;;13.10;99.90;;;;;;5034779;28;20064;-74
2020/12/24 08:52:11;;;;;;;20.42;16.08;;;13.10;99.90;;;;;;4937660;29;20442;-75
2020/12/24 08:54:37;;;;;;;19.27;15.88;;;13.10;99.90;;;;;;5022607;28;20038;-75
2020/12/24 08:57:04;;;;;;;22.50;16.23;;;13.20;99.90;;;;;;5034477;28;20145;-75
2020/12/24 08:59:30;;;;;;;20.40;17.55;;;13.20;99.90;;;;;;5034209;28;20138;-75
2020/12/24 09:01:56;;;;;;;31.02;18.27;;;13.20;99.90;;;;;;5012335;28;20504;-75
2020/12/24 09:04:22;;;;;;;23.63;18.80;;;13.20;99.90;;;;;;5014140;28;20046;-75
2020/12/24 09:06:48;;;;;;;32.25;21.85;;;13.30;99.90;;;;;;5013073;28;20392;-76
2020/12/24 09:09:22;;;;;;;31.10;20.75;;;13.30;99.90;;;;;;5013030;28;20072;-75
2020/12/24 09:11:48;;;;;;;26.50;21.55;;;13.30;99.90;;;;;;5012953;28;20034;-75
2020/12/24 09:14:19;;;;;;;29.08;20.80;;;13.30;99.90;;;;;;5014049;28;20022;-75
2020/12/24 09:17:00;;;;;;;28.15;21.13;;;13.40;99.90;;;;;;5014699;28;20072;-77
2020/12/24 09:19:29;;;;;;;30.23;22.13;;;13.40;99.90;;;;;;5015204;28;20484;-76
2020/12/24 09:21:56;;;;;;;34.72;25.15;;;13.50;99.90;;;;;;5017207;28;20029;-77
2020/12/24 09:24:23;;;;;;;40.50;23.70;;;13.60;99.90;;;;;;5017458;28;20195;-77
2020/12/24 09:26:55;;;;;;;30.40;24.13;;;13.70;99.90;;;;;;5014589;28;20022;-76
2020/12/24 09:29:25;;;;;;;30.65;24.83;;;13.80;99.90;;;;;;5013962;28;20076;-76
2020/12/24 09:31:54;;;;;;;27.67;23.27;;;13.80;99.90;;;;;;5014562;28;20076;-76
2020/12/24 09:34:20;;;;;;;32.28;26.30;;;14.00;99.90;;;;;;5012943;28;20033;-76
2020/12/24 09:36:47;;;;;;;60.70;43.63;;;14.20;99.90;;;;;;5012685;28;20376;-77
2020/12/24 09:39:14;;;;;;;43.47;33.10;;;14.30;99.90;;;;;;5014160;28;20022;-76
2020/12/24 09:41:44;;;;;;;53.33;39.42;;;14.40;99.90;;;;;;5012927;28;20033;-76
2020/12/24 09:44:10;;;;;;;67.35;47.72;;;14.40;99.90;;;;;;5013781;28;20026;-77
2020/12/24 09:46:37;;;;;;;51.92;40.10;;;14.50;99.90;;;;;;5012852;28;20037;-77
2020/12/24 09:49:03;;;;;;;71.03;55.75;;;14.60;99.90;;;;;;5013558;28;20104;-77
2020/12/24 09:51:32;;;;;;;45.33;38.53;;;14.60;99.90;;;;;;5012374;28;20468;-76
2020/12/24 09:53:59;;;;;;;43.22;34.50;;;14.80;99.90;;;;;;5012397;28;20026;-76
2020/12/24 09:56:25;;;;;;;41.55;33.97;;;14.90;99.90;;;;;;5012982;28;20415;-76
2020/12/24 09:58:51;;;;;;;54.67;42.10;;;15.00;99.90;;;;;;5015325;28;20030;-76
2020/12/24 10:01:20;;;;;;;48.67;37.80;;;15.10;99.90;;;;;;5014373;28;20026;-75
2020/12/24 10:03:46;;;;;;;46.95;34.67;;;15.30;99.90;;;;;;5031729;28;20053;-75
2020/12/24 10:06:12;;;;;;;37.50;29.95;;;15.50;99.90;;;;;;5033215;28;20028;-77
2020/12/24 10:08:38;;;;;;;36.50;26.67;;;15.70;99.90;;;;;;5033435;28;20108;-76
2020/12/24 10:11:04;;;;;;;31.27;26.50;;;15.90;99.90;;;;;;5016348;28;20053;-76
2020/12/24 10:13:30;;;;;;;35.30;27.88;;;16.40;99.90;;;;;;5015700;28;20033;-74
2020/12/24 10:15:56;;;;;;;23.05;20.60;;;17.00;99.90;;;;;;5036542;28;20022;-75
2020/12/24 10:18:21;;;;;;;23.50;20.40;;;17.60;99.80;;;;;;5037209;28;20105;-74
2020/12/24 10:20:50;;;;;;;16.13;12.10;;;18.00;98.50;;;;;;5019590;28;20383;-74
2020/12/24 10:23:16;;;;;;;4.90;3.90;;;18.10;97.40;;;;;;5037215;28;20029;-75
2020/12/24 10:25:42;;;;;;;4.07;3.53;;;17.90;95.80;;;;;;5019634;28;20032;-75
2020/12/24 10:28:08;;;;;;;8.00;3.13;;;17.50;95.80;;;;;;5036953;28;20030;-75
2020/12/24 10:30:34;;;;;;;6.00;3.40;;;17.40;96.00;;;;;;5018977;28;20060;-74
2020/12/24 10:32:59;;;;;;;7.40;3.25;;;17.40;96.30;;;;;;5036489;28;20034;-74
2020/12/24 10:35:25;;;;;;;8.40;3.72;;;17.50;95.90;;;;;;5036545;28;20022;-74
2020/12/24 10:37:53;;;;;;;10.75;7.30;;;17.50;95.60;;;;;;5018992;28;20066;-74
2020/12/24 10:40:19;;;;;;;7.30;4.47;;;17.50;95.60;;;;;;5036124;28;20380;-75
2020/12/24 10:42:47;;;;;;;5.85;3.92;;;17.50;95.40;;;;;;5037195;28;20039;-74
2020/12/24 10:45:16;;;;;;;4.55;4.15;;;17.40;95.80;;;;;;5018506;28;20022;-74
2020/12/24 10:47:42;;;;;;;4.50;4.10;;;17.40;96.20;;;;;;5018548;28;20084;-75
2020/12/24 10:50:08;;;;;;;9.05;4.82;;;17.40;96.40;;;;;;5018467;28;20025;-74
2020/12/24 10:52:33;;;;;;;9.98;7.25;;;17.50;96.50;;;;;;5018630;28;20033;-74
2020/12/24 10:54:59;;;;;;;10.77;7.88;;;17.50;96.10;;;;;;5037029;28;20431;-74
2020/12/24 10:57:25;;;;;;;9.35;6.78;;;17.60;96.00;;;;;;5018285;28;20057;-75
2020/12/24 10:59:51;;;;;;;5.93;4.35;;;17.50;95.30;;;;;;5018872;28;20024;-75
2020/12/24 11:02:16;;;;;;;5.30;3.72;;;17.50;94.90;;;;;;5014915;28;20122;-74
2020/12/24 11:04:42;;;;;;;4.43;2.50;;;17.50;94.30;;;;;;5015922;28;20472;-75
2020/12/24 11:07:08;;;;;;;8.82;3.55;;;17.40;93.20;;;;;;5015906;28;20026;-80
2020/12/24 11:09:34;;;;;;;10.60;4.70;;;17.70;93.30;;;;;;5016773;28;20101;-75
2020/12/24 11:12:00;;;;;;;5.55;4.30;;;18.00;93.00;;;;;;5015942;28;20033;-74
2020/12/24 11:14:25;;;;;;;27.80;16.02;;;18.10;93.30;;;;;;5017132;28;20026;-76
2020/12/24 11:16:54;;;;;;;4.78;4.38;;;18.40;93.00;;;;;;5015267;28;20084;-76
2020/12/24 11:19:20;;;;;;;12.70;5.30;;;18.70;92.60;;;;;;5015136;28;20049;-76
2020/12/24 11:21:45;;;;;;;6.13;4.40;;;19.00;92.60;;;;;;5015683;28;20112;-76
2020/12/24 11:24:11;;;;;;;7.72;4.80;;;19.10;92.20;;;;;;5015244;28;20469;-76
2020/12/24 11:26:38;;;;;;;15.23;9.52;;;18.90;92.20;;;;;;5015851;28;20030;-74
2020/12/24 11:29:06;;;;;;;5.93;3.67;;;18.50;92.70;;;;;;5016287;28;20451;-73
2020/12/24 11:31:35;;;;;;;5.97;3.83;;;17.90;92.80;;;;;;5016581;28;20034;-76
2020/12/24 11:34:01;;;;;;;14.13;6.00;;;17.80;93.20;;;;;;5018897;28;20018;-77
2020/12/24 11:36:27;;;;;;;3.95;3.53;;;17.60;93.90;;;;;;5020039;28;20034;-75
2020/12/24 11:38:54;;;;;;;4.25;3.70;;;17.30;94.10;;;;;;5014513;28;20033;-74
2020/12/24 11:41:22;;;;;;;4.88;4.38;;;17.30;94.20;;;;;;4998669;28;20033;-75
2020/12/24 11:43:49;;;;;;;7.30;5.38;;;17.50;94.40;;;;;;5014291;28;20083;-76
2020/12/24 11:46:16;;;;;;;21.45;14.02;;;17.60;94.00;;;;;;5014754;28;20030;-75
2020/12/24 11:48:42;;;;;;;4.90;4.40;;;17.50;94.20;;;;;;5015970;28;20341;-75
2020/12/24 11:51:10;;;;;;;4.40;4.00;;;17.40;94.20;;;;;;5014623;28;20034;-75
2020/12/24 11:53:37;;;;;;;10.82;4.63;;;17.30;94.90;;;;;;5015906;28;20033;-75
2020/12/24 11:56:04;;;;;;;19.25;9.00;;;17.20;95.20;;;;;;5014415;28;20034;-75
2020/12/24 11:58:30;;;;;;;4.68;3.65;;;17.20;95.00;;;;;;5014445;28;20524;-74
2020/12/24 12:00:56;;;;;;;4.20;3.70;;;17.20;94.60;;;;;;5014098;28;20029;-74
2020/12/24 12:03:22;;;;;;;5.30;4.10;;;17.00;94.40;;;;;;5013581;28;20100;-75
2020/12/24 12:05:48;;;;;;;7.63;3.90;;;17.00;94.90;;;;;;5014385;28;20088;-76
2020/12/24 12:08:14;;;;;;;4.13;2.75;;;16.90;94.50;;;;;;5015010;28;20030;-75
2020/12/24 12:10:40;;;;;;;3.85;2.92;;;16.80;93.80;;;;;;5015152;28;20026;-76
2020/12/24 12:13:06;;;;;;;4.00;3.17;;;16.70;94.10;;;;;;5014275;28;20041;-75
2020/12/24 12:15:31;;;;;;;4.45;3.90;;;16.80;94.70;;;;;;5014690;28;20048;-76
2020/12/24 12:17:57;;;;;;;6.00;3.25;;;16.80;94.80;;;;;;5013942;28;20022;-75
2020/12/24 12:20:23;;;;;;;6.53;3.63;;;17.10;95.00;;;;;;5013982;28;20033;-75
2020/12/24 12:22:49;;;;;;;6.05;3.70;;;17.40;94.50;;;;;;5013909;28;20026;-74
2020/12/24 12:25:15;;;;;;;5.45;3.83;;;17.40;94.30;;;;;;5013848;28;20026;-74
2020/12/24 12:27:44;;;;;;;6.07;4.00;;;17.40;94.30;;;;;;5014858;28;20037;-75
2020/12/24 12:30:10;;;;;;;10.23;4.80;;;17.10;93.90;;;;;;5014348;28;20460;-74
2020/12/24 12:32:38;;;;;;;4.43;4.03;;;16.90;94.50;;;;;;5014021;28;20037;-75
2020/12/24 12:35:05;;;;;;;5.30;4.25;;;16.80;94.90;;;;;;5013968;28;20030;-74